Time;durP1;ratioP1;P1;durP2;ratioP2;P2;SDS_P1;SDS_P2;PMS_P1;PMS_P2;Temp;Humidity;BMP_temperature;BMP_pressure;BME280_temperature;BME280_humidity;BME280_pressure;Samples;Min_cycle;Max_cycle;Signal;HPM_P1;HPM_P2
2022/02/20 00:02:01;;;;;;;;;;;;;;;7.00;56.58;99740.21;1745162;81;20498;-83
2022/02/20 00:04:26;;;;;;;;;;;;;;;6.85;56.53;99748.20;1747610;81;20144;-82
2022/02/20 00:06:52;;;;;;;;;;;;;;;6.87;56.75;99745.43;1746091;81;20163;-81
2022/02/20 00:09:17;;;;;;;;;;;;;;;6.79;56.47;99744.36;1744551;81;21171;-82
2022/02/20 00:11:43;;;;;;;;;;;;;;;6.88;56.63;99747.91;1751014;81;20299;-83
2022/02/20 00:14:08;;;;;;;;;;;;;;;6.94;56.53;99749.97;1748660;81;20128;-81
2022/02/20 00:16:35;;;;;;;;;;;;;;;6.83;56.54;99744.89;1747266;81;21048;-79
2022/02/20 00:19:00;;;;;;;;;;;;;;;6.59;57.03;99745.38;1741444;81;20233;-81
2022/02/20 00:21:26;;;;;;;;;;;;;;;6.76;57.19;99744.64;1745903;81;21174;-81
2022/02/20 00:23:52;;;;;;;;;;;;;;;6.86;56.60;99746.42;1754261;81;20179;-80
2022/02/20 00:26:17;;;;;;;;;;;;;;;6.80;56.78;99736.81;1750655;80;20454;-81
2022/02/20 00:28:43;;;;;;;;;;;;;;;6.64;56.94;99739.22;1748046;81;20978;-81
2022/02/20 00:31:08;;;;;;;;;;;;;;;6.71;56.74;99733.75;1751296;80;20135;-81
2022/02/20 00:33:34;;;;;;;;;;;;;;;6.89;56.57;99733.02;1748064;81;21203;-82
2022/02/20 00:35:59;;;;;;;;;;;;;;;6.88;56.49;99726.09;1750414;81;20155;-80
2022/02/20 00:38:25;;;;;;;;;;;;;;;6.82;56.47;99723.08;1748781;81;20443;-81
2022/02/20 00:40:51;;;;;;;;;;;;;;;7.07;56.02;99726.05;1750031;80;20150;-81
2022/02/20 00:43:18;;;;;;;;;;;;;;;6.83;56.19;99724.72;1749099;81;20448;-81
2022/02/20 00:45:45;;;;;;;;;;;;;;;7.01;56.22;99720.88;1749918;80;21179;-81
2022/02/20 00:48:11;;;;;;;;;;;;;;;6.82;56.41;99727.48;1745330;81;20134;-82
2022/02/20 00:50:39;;;;;;;;;;;;;;;6.94;56.38;99725.53;1751038;81;20910;-81
2022/02/20 00:53:04;;;;;;;;;;;;;;;6.98;56.26;99721.66;1757983;80;20195;-81
2022/02/20 00:55:30;;;;;;;;;;;;;;;6.63;56.97;99725.74;1772306;79;20142;-81
2022/02/20 00:57:55;;;;;;;;;;;;;;;6.60;56.95;99719.47;1761882;79;21164;-81
2022/02/20 01:00:21;;;;;;;;;;;;;;;6.74;56.87;99723.44;1763440;80;20147;-81
2022/02/20 01:02:47;;;;;;;;;;;;;;;6.67;56.86;99711.37;1764564;80;20491;-81
2022/02/20 01:05:12;;;;;;;;;;;;;;;6.76;56.79;99709.72;1754223;80;20308;-81
2022/02/20 01:07:39;;;;;;;;;;;;;;;6.80;56.90;99706.63;1755704;79;21337;-81
2022/02/20 01:10:06;;;;;;;;;;;;;;;6.98;56.48;99708.53;1762412;80;21145;-82
2022/02/20 01:12:31;;;;;;;;;;;;;;;6.85;56.83;99713.26;1766807;79;20520;-81
2022/02/20 01:14:57;;;;;;;;;;;;;;;6.90;56.88;99723.69;1772312;79;20158;-82
2022/02/20 01:17:22;;;;;;;;;;;;;;;6.97;56.67;99722.62;1750741;80;20168;-81
2022/02/20 01:19:48;;;;;;;;;;;;;;;7.18;56.15;99724.55;1771696;80;20158;-81
2022/02/20 01:22:14;;;;;;;;;;;;;;;7.14;56.09;99719.23;1782237;80;21149;-82
2022/02/20 01:24:39;;;;;;;;;;;;;;;6.89;56.38;99716.77;1763546;80;20156;-81
2022/02/20 01:27:05;;;;;;;;;;;;;;;6.89;56.47;99712.02;1767128;80;20158;-82
2022/02/20 01:29:31;;;;;;;;;;;;;;;6.99;56.53;99712.33;1767862;80;21251;-82
2022/02/20 01:31:56;;;;;;;;;;;;;;;7.06;56.36;99706.00;1771573;80;20256;-82
2022/02/20 01:34:22;;;;;;;;;;;;;;;7.05;56.19;99706.15;1763484;80;21023;-81
2022/02/20 01:36:47;;;;;;;;;;;;;;;7.18;55.99;99700.91;1772762;80;20306;-84
2022/02/20 01:39:13;;;;;;;;;;;;;;;6.87;56.35;99703.44;1763884;80;20126;-81
2022/02/20 01:41:38;;;;;;;;;;;;;;;7.05;56.46;99701.71;1773309;80;20130;-80
2022/02/20 01:44:05;;;;;;;;;;;;;;;7.04;55.96;99694.83;1758120;80;20153;-80
2022/02/20 01:46:31;;;;;;;;;;;;;;;7.06;56.03;99696.81;1772729;80;21307;-79
2022/02/20 01:48:56;;;;;;;;;;;;;;;7.07;56.23;99689.75;1773925;80;20176;-79
2022/02/20 01:51:22;;;;;;;;;;;;;;;7.01;56.32;99672.80;1771069;79;20700;-80
2022/02/20 01:53:48;;;;;;;;;;;;;;;6.97;56.14;99677.99;1775804;80;21056;-80
2022/02/20 01:56:13;;;;;;;;;;;;;;;6.97;56.32;99680.61;1770296;79;20121;-80
2022/02/20 01:58:40;;;;;;;;;;;;;;;7.02;56.17;99665.25;1766799;80;21121;-80
2022/02/20 02:01:06;;;;;;;;;;;;;;;6.96;56.02;99665.83;1767807;80;20176;-81
2022/02/20 02:03:33;;;;;;;;;;;;;;;7.07;55.92;99670.91;1732880;80;20164;-81
2022/02/20 02:05:59;;;;;;;;;;;;;;;7.04;55.94;99669.89;1764462;80;20177;-80
2022/02/20 02:08:24;;;;;;;;;;;;;;;6.93;56.05;99668.73;1767425;79;20204;-81
2022/02/20 02:10:50;;;;;;;;;;;;;;;6.75;56.32;99666.88;1773128;79;21003;-80
2022/02/20 02:13:15;;;;;;;;;;;;;;;6.83;56.18;99660.42;1768776;80;20213;-80
2022/02/20 02:15:51;;;;;;;;;;;;;;;6.90;56.12;99650.66;1773442;80;20159;-81
2022/02/20 02:18:16;;;;;;;;;;;;;;;6.74;56.25;99653.44;1769634;80;20177;-81
2022/02/20 02:20:42;;;;;;;;;;;;;;;6.73;56.50;99654.40;1767859;80;20200;-81
2022/02/20 02:23:09;;;;;;;;;;;;;;;6.76;56.42;99647.55;1768864;80;21085;-81
2022/02/20 02:25:35;;;;;;;;;;;;;;;6.66;56.41;99642.81;1768713;80;20177;-80
2022/02/20 02:28:01;;;;;;;;;;;;;;;6.69;56.34;99639.08;1769850;79;20186;-81
2022/02/20 02:30:28;;;;;;;;;;;;;;;6.56;56.58;99636.30;1767266;80;20155;-81
2022/02/20 02:32:53;;;;;;;;;;;;;;;6.63;56.52;99630.83;1772934;80;20168;-81
2022/02/20 02:35:21;;;;;;;;;;;;;;;6.61;56.50;99630.62;1768418;80;21175;-80
2022/02/20 02:37:46;;;;;;;;;;;;;;;6.66;56.63;99621.82;1774768;80;20151;-81
2022/02/20 02:40:12;;;;;;;;;;;;;;;6.65;56.52;99614.94;1767880;80;21145;-81
2022/02/20 02:42:38;;;;;;;;;;;;;;;6.55;56.60;99608.89;1767357;80;20139;-80
2022/02/20 02:45:04;;;;;;;;;;;;;;;6.53;56.88;99609.03;1768999;79;20737;-81
2022/02/20 02:47:30;;;;;;;;;;;;;;;6.71;56.18;99597.77;1764204;80;21234;-81
2022/02/20 02:49:56;;;;;;;;;;;;;;;6.77;56.32;99599.33;1771666;80;20769;-80
2022/02/20 02:52:21;;;;;;;;;;;;;;;6.69;56.44;99604.48;1765860;80;20269;-83
2022/02/20 02:54:47;;;;;;;;;;;;;;;6.65;56.55;99597.39;1769160;80;20139;-83
2022/02/20 02:57:14;;;;;;;;;;;;;;;6.66;56.69;99596.89;1773084;80;20155;-82
2022/02/20 02:59:39;;;;;;;;;;;;;;;6.47;57.08;99601.24;1768101;79;22045;-82
2022/02/20 03:02:06;;;;;;;;;;;;;;;6.57;56.96;99592.52;1749266;80;20105;-82
2022/02/20 03:04:32;;;;;;;;;;;;;;;6.62;56.96;99589.81;1762775;80;20193;-80
2022/02/20 03:06:57;;;;;;;;;;;;;;;6.46;57.02;99581.25;1767975;79;20545;-80
2022/02/20 03:09:23;;;;;;;;;;;;;;;6.71;56.79;99578.09;1771523;80;20135;-81
2022/02/20 03:11:48;;;;;;;;;;;;;;;6.74;56.48;99572.09;1767127;80;21064;-80
2022/02/20 03:14:14;;;;;;;;;;;;;;;6.67;56.32;99566.26;1765386;80;20153;-80
2022/02/20 03:16:39;;;;;;;;;;;;;;;6.39;56.39;99569.67;1764324;80;20137;-81
2022/02/20 03:19:05;;;;;;;;;;;;;;;6.77;56.21;99570.45;1767333;80;20133;-81
2022/02/20 03:21:31;;;;;;;;;;;;;;;6.71;56.03;99573.70;1764066;79;20923;-81
2022/02/20 03:23:59;;;;;;;;;;;;;;;6.80;55.94;99564.10;1770440;80;21118;-81
2022/02/20 03:26:27;;;;;;;;;;;;;;;6.76;55.84;99566.20;1770736;79;20185;-82
2022/02/20 03:28:53;;;;;;;;;;;;;;;6.83;55.51;99566.44;1771006;80;20157;-82
2022/02/20 03:31:20;;;;;;;;;;;;;;;6.64;55.93;99567.36;1763743;80;20121;-81
2022/02/20 03:33:46;;;;;;;;;;;;;;;6.65;55.78;99567.72;1762719;80;20115;-80
2022/02/20 03:36:15;;;;;;;;;;;;;;;6.75;55.61;99563.72;1765842;80;21173;-81
2022/02/20 03:38:44;;;;;;;;;;;;;;;6.71;55.48;99554.02;1763342;79;20179;-82
2022/02/20 03:41:09;;;;;;;;;;;;;;;6.75;55.15;99550.60;1766392;80;20237;-81
2022/02/20 03:43:35;;;;;;;;;;;;;;;6.72;55.19;99548.27;1772396;80;20160;-82
2022/02/20 03:46:02;;;;;;;;;;;;;;;6.86;54.70;99545.14;1772551;80;20445;-80
2022/02/20 03:48:27;;;;;;;;;;;;;;;6.70;54.83;99535.30;1768571;80;21197;-81
2022/02/20 03:50:53;;;;;;;;;;;;;;;6.64;55.17;99534.56;1761974;80;20196;-80
2022/02/20 03:53:19;;;;;;;;;;;;;;;6.69;54.84;99527.58;1763137;80;20454;-80
2022/02/20 03:55:44;;;;;;;;;;;;;;;6.92;54.92;99531.93;1761238;79;20173;-80
2022/02/20 03:58:10;;;;;;;;;;;;;;;6.94;54.52;99529.97;1778490;78;20131;-80
2022/02/20 04:00:36;;;;;;;;;;;;;;;6.80;54.59;99536.05;1748741;80;21093;-81
2022/02/20 04:03:01;;;;;;;;;;;;;;;6.65;55.06;99519.99;1754937;80;20461;-81
2022/02/20 04:05:27;;;;;;;;;;;;;;;6.50;55.09;99516.70;1754529;79;20214;-81
2022/02/20 04:07:53;;;;;;;;;;;;;;;6.38;55.65;99516.86;1757746;79;20570;-81
2022/02/20 04:10:20;;;;;;;;;;;;;;;6.32;55.55;99514.82;1749638;80;20227;-82
2022/02/20 04:12:45;;;;;;;;;;;;;;;6.31;55.68;99511.88;1736535;80;21934;-81
2022/02/20 04:15:11;;;;;;;;;;;;;;;6.31;55.79;99500.08;1760820;79;20104;-81
2022/02/20 04:17:42;;;;;;;;;;;;;;;6.34;55.50;99501.10;1764338;80;20223;-82
2022/02/20 04:20:09;;;;;;;;;;;;;;;6.36;55.48;99499.15;1756896;80;20142;-80
2022/02/20 04:22:35;;;;;;;;;;;;;;;6.35;55.61;99498.80;1763495;80;20209;-82
2022/02/20 04:25:01;;;;;;;;;;;;;;;6.24;55.28;99483.27;1765051;80;21011;-82
2022/02/20 04:27:26;;;;;;;;;;;;;;;6.15;55.81;99495.92;1760693;80;20338;-81
2022/02/20 04:29:52;;;;;;;;;;;;;;;6.30;55.61;99485.30;1758667;79;20143;-81
2022/02/20 04:32:17;;;;;;;;;;;;;;;6.54;55.13;99477.38;1761061;80;20463;-82
2022/02/20 04:34:43;;;;;;;;;;;;;;;6.52;54.98;99473.59;1764972;80;20177;-82
2022/02/20 04:37:09;;;;;;;;;;;;;;;6.49;54.92;99463.89;1764230;80;21152;-81
2022/02/20 04:39:34;;;;;;;;;;;;;;;6.61;54.60;99461.41;1759051;80;20165;-81
2022/02/20 04:42:00;;;;;;;;;;;;;;;6.57;54.57;99460.03;1762311;80;20729;-81
2022/02/20 04:44:26;;;;;;;;;;;;;;;6.70;54.55;99459.70;1761464;79;20193;-81
2022/02/20 04:46:52;;;;;;;;;;;;;;;6.65;54.52;99454.41;1760757;80;20187;-81
2022/02/20 04:49:17;;;;;;;;;;;;;;;6.80;54.23;99444.20;1763579;79;21135;-81
2022/02/20 04:51:43;;;;;;;;;;;;;;;6.68;54.12;99440.17;1773756;80;20419;-81
2022/02/20 04:54:09;;;;;;;;;;;;;;;6.76;54.06;99436.81;1739468;82;20236;-81
2022/02/20 04:56:34;;;;;;;;;;;;;;;6.70;53.87;99430.34;1758590;80;20143;-80
2022/02/20 04:59:00;;;;;;;;;;;;;;;6.76;53.81;99439.43;1753625;81;20139;-80
2022/02/20 05:01:26;;;;;;;;;;;;;;;6.80;54.13;99436.33;1748597;81;22446;-81
2022/02/20 05:03:52;;;;;;;;;;;;;;;6.72;53.86;99434.95;1750938;80;20146;-83
2022/02/20 05:06:18;;;;;;;;;;;;;;;6.50;54.09;99433.58;1743581;81;20145;-80
2022/02/20 05:08:44;;;;;;;;;;;;;;;6.64;54.07;99428.31;1755111;81;20554;-81
2022/02/20 05:11:10;;;;;;;;;;;;;;;6.79;54.02;99429.45;1753217;81;20276;-80
2022/02/20 05:13:35;;;;;;;;;;;;;;;6.73;53.79;99426.11;1759139;81;21166;-80
2022/02/20 05:16:01;;;;;;;;;;;;;;;6.72;54.07;99425.77;1752958;81;20134;-80
2022/02/20 05:18:27;;;;;;;;;;;;;;;6.80;53.72;99421.08;1753905;81;20435;-80
2022/02/20 05:20:54;;;;;;;;;;;;;;;6.85;53.61;99423.26;1751329;81;21058;-80
2022/02/20 05:23:23;;;;;;;;;;;;;;;6.87;53.44;99414.27;1745760;81;20091;-80
2022/02/20 05:25:49;;;;;;;;;;;;;;;6.66;53.82;99425.05;1744962;81;21880;-80
2022/02/20 05:28:15;;;;;;;;;;;;;;;6.81;53.85;99420.94;1754691;81;20179;-81
2022/02/20 05:30:41;;;;;;;;;;;;;;;6.49;54.19;99415.37;1741754;81;20216;-80
2022/02/20 05:33:06;;;;;;;;;;;;;;;6.27;54.53;99416.93;1751480;81;20165;-83
2022/02/20 05:35:32;;;;;;;;;;;;;;;6.41;54.58;99418.73;1753352;81;20101;-84
2022/02/20 05:37:58;;;;;;;;;;;;;;;6.59;54.45;99409.58;1750230;80;21145;-84
2022/02/20 05:40:23;;;;;;;;;;;;;;;6.35;54.56;99404.89;1750378;81;20167;-84
2022/02/20 05:42:50;;;;;;;;;;;;;;;6.46;54.57;99410.77;1751762;81;20735;-81
2022/02/20 05:45:15;;;;;;;;;;;;;;;6.25;54.70;99404.95;1749968;81;20750;-80
2022/02/20 05:47:41;;;;;;;;;;;;;;;6.31;54.79;99409.62;1754348;81;20452;-77
2022/02/20 05:50:08;;;;;;;;;;;;;;;6.23;54.80;99406.87;1753556;80;21051;-83
2022/02/20 05:52:34;;;;;;;;;;;;;;;6.38;54.55;99418.52;1750605;81;20229;-79
2022/02/20 05:54:59;;;;;;;;;;;;;;;6.41;54.60;99404.30;1749180;81;20260;-79
2022/02/20 05:57:25;;;;;;;;;;;;;;;6.55;54.49;99397.23;1753896;81;20104;-79
2022/02/20 05:59:50;;;;;;;;;;;;;;;6.51;54.56;99398.98;1748637;81;20167;-80
2022/02/20 06:02:16;;;;;;;;;;;;;;;6.47;54.52;99401.91;1757436;81;21090;-80
2022/02/20 06:04:42;;;;;;;;;;;;;;;6.44;54.37;99402.70;1747147;81;20169;-80
2022/02/20 06:07:09;;;;;;;;;;;;;;;6.50;54.42;99398.17;1747147;81;20282;-81
2022/02/20 06:09:35;;;;;;;;;;;;;;;6.49;54.43;99393.08;1745357;81;20616;-79
2022/02/20 06:12:00;;;;;;;;;;;;;;;6.59;54.34;99389.41;1749036;81;20181;-81
2022/02/20 06:14:26;;;;;;;;;;;;;;;6.63;54.40;99391.23;1750403;81;21213;-80
2022/02/20 06:16:51;;;;;;;;;;;;;;;6.77;53.89;99385.95;1748289;80;20133;-80
2022/02/20 06:19:17;;;;;;;;;;;;;;;6.44;54.62;99385.16;1746349;81;20596;-79
2022/02/20 06:21:42;;;;;;;;;;;;;;;6.66;54.17;99381.76;1751984;81;20154;-81
2022/02/20 06:24:12;;;;;;;;;;;;;;;6.62;54.18;99377.80;1751752;81;20124;-79
2022/02/20 06:26:39;;;;;;;;;;;;;;;6.74;54.14;99384.95;1755574;81;21109;-80
2022/02/20 06:29:05;;;;;;;;;;;;;;;6.70;54.32;99381.81;1744358;80;20528;-81
2022/02/20 06:31:30;;;;;;;;;;;;;;;6.47;54.27;99377.48;1742027;80;20169;-81
2022/02/20 06:33:56;;;;;;;;;;;;;;;6.63;54.20;99379.44;1746731;80;20153;-82
2022/02/20 06:36:22;;;;;;;;;;;;;;;6.64;54.24;99379.28;1751277;81;20280;-83
2022/02/20 06:38:47;;;;;;;;;;;;;;;6.72;54.01;99382.97;1756968;81;21139;-82
2022/02/20 06:41:13;;;;;;;;;;;;;;;6.54;53.82;99373.77;1745448;81;20472;-81
2022/02/20 06:43:39;;;;;;;;;;;;;;;6.66;53.80;99369.95;1749556;81;20227;-79
2022/02/20 06:46:05;;;;;;;;;;;;;;;6.79;53.89;99369.09;1751236;81;20173;-83
2022/02/20 06:48:31;;;;;;;;;;;;;;;6.79;53.75;99366.47;1748687;81;20181;-83
2022/02/20 06:50:57;;;;;;;;;;;;;;;6.75;53.62;99357.74;1749448;81;21078;-83
2022/02/20 06:53:23;;;;;;;;;;;;;;;6.80;53.75;99356.30;1779913;80;20196;-83
2022/02/20 06:55:50;;;;;;;;;;;;;;;6.74;53.80;99349.52;1748684;80;20261;-81
2022/02/20 06:58:16;;;;;;;;;;;;;;;6.89;53.50;99355.07;1731052;82;20486;-82
2022/02/20 07:00:42;;;;;;;;;;;;;;;6.74;53.88;99358.70;1742473;80;20204;-82
2022/02/20 07:03:07;;;;;;;;;;;;;;;6.70;53.55;99342.45;1750175;81;21152;-82
2022/02/20 07:05:33;;;;;;;;;;;;;;;6.96;53.40;99340.34;1747788;80;20161;-83
2022/02/20 07:07:59;;;;;;;;;;;;;;;7.05;53.44;99335.48;1750577;81;20658;-82
2022/02/20 07:10:25;;;;;;;;;;;;;;;7.18;53.23;99330.66;1748226;81;20233;-80
2022/02/20 07:12:51;;;;;;;;;;;;;;;7.23;53.12;99330.70;1751324;81;20185;-81
2022/02/20 07:15:17;;;;;;;;;;;;;;;7.32;53.05;99338.97;1749288;81;21206;-82
2022/02/20 07:17:42;;;;;;;;;;;;;;;7.37;52.94;99328.80;1742768;81;20137;-81
2022/02/20 07:20:08;;;;;;;;;;;;;;;7.30;52.98;99333.86;1749193;81;20133;-81
2022/02/20 07:22:34;;;;;;;;;;;;;;;7.26;53.11;99335.64;1741532;81;20202;-82
2022/02/20 07:25:00;;;;;;;;;;;;;;;7.24;53.22;99344.14;1746304;81;20110;-82
2022/02/20 07:27:26;;;;;;;;;;;;;;;7.21;53.06;99341.36;1746611;81;21111;-81
2022/02/20 07:29:51;;;;;;;;;;;;;;;7.25;53.06;99341.86;1746239;80;20481;-81
2022/02/20 07:32:17;;;;;;;;;;;;;;;7.31;53.12;99343.88;1745256;81;20161;-81
2022/02/20 07:34:42;;;;;;;;;;;;;;;7.43;52.94;99340.00;1748122;81;20150;-81
2022/02/20 07:37:08;;;;;;;;;;;;;;;7.40;52.87;99339.00;1748316;81;20215;-81
2022/02/20 07:39:34;;;;;;;;;;;;;;;7.21;52.89;99333.95;1747935;80;21127;-82
2022/02/20 07:41:59;;;;;;;;;;;;;;;7.39;53.09;99337.34;1740989;80;20949;-81
2022/02/20 07:44:25;;;;;;;;;;;;;;;7.47;53.04;99336.09;1745122;80;20319;-81
2022/02/20 07:46:52;;;;;;;;;;;;;;;7.58;53.05;99336.28;1733008;81;20178;-82
2022/02/20 07:49:18;;;;;;;;;;;;;;;7.61;52.48;99333.84;1748907;80;20499;-81
2022/02/20 07:51:44;;;;;;;;;;;;;;;7.53;52.39;99327.56;1748116;80;21162;-82
2022/02/20 07:54:10;;;;;;;;;;;;;;;7.68;51.80;99321.73;1733333;80;20988;-82
2022/02/20 07:56:36;;;;;;;;;;;;;;;7.57;52.17;99329.87;1741434;81;20239;-83
2022/02/20 07:59:01;;;;;;;;;;;;;;;7.75;52.37;99322.73;1737137;80;20921;-82
2022/02/20 08:01:27;;;;;;;;;;;;;;;7.76;51.81;99317.81;1738045;81;20126;-82
2022/02/20 08:03:52;;;;;;;;;;;;;;;7.73;52.28;99316.81;1732103;81;21500;-84
2022/02/20 08:06:18;;;;;;;;;;;;;;;7.71;51.92;99308.28;1741728;81;20152;-82
2022/02/20 08:08:43;;;;;;;;;;;;;;;7.79;51.88;99321.44;1737019;81;20495;-80
2022/02/20 08:11:09;;;;;;;;;;;;;;;7.78;51.85;99313.22;1740411;81;20155;-80
2022/02/20 08:13:35;;;;;;;;;;;;;;;7.84;51.65;99313.89;1730463;81;20828;-84
2022/02/20 08:16:00;;;;;;;;;;;;;;;7.78;51.53;99306.64;1739169;81;21152;-81
2022/02/20 08:18:26;;;;;;;;;;;;;;;7.96;51.59;99303.92;1731395;81;20165;-82
2022/02/20 08:20:51;;;;;;;;;;;;;;;7.98;51.30;99304.57;1736916;80;20151;-82
2022/02/20 08:23:20;;;;;;;;;;;;;;;8.21;51.01;99298.72;1743279;81;20609;-79
2022/02/20 08:25:46;;;;;;;;;;;;;;;8.13;50.83;99298.71;1735677;81;20198;-80
2022/02/20 08:28:12;;;;;;;;;;;;;;;8.26;50.89;99295.94;1740545;81;21170;-82
2022/02/20 08:30:37;;;;;;;;;;;;;;;8.21;50.73;99291.64;1743857;81;20156;-81
2022/02/20 08:33:07;;;;;;;;;;;;;;;8.17;50.72;99286.39;1737627;80;20153;-81
2022/02/20 08:35:33;;;;;;;;;;;;;;;8.03;50.71;99288.31;1737115;80;20154;-81
2022/02/20 08:37:58;;;;;;;;;;;;;;;8.07;50.68;99277.81;1735960;81;20193;-82
2022/02/20 08:40:24;;;;;;;;;;;;;;;8.04;50.75;99278.14;1736914;81;21086;-81
2022/02/20 08:42:49;;;;;;;;;;;;;;;8.10;50.99;99274.87;1740916;81;20210;-81
2022/02/20 08:45:16;;;;;;;;;;;;;;;8.02;51.45;99266.47;1739126;81;20859;-81
2022/02/20 08:47:42;;;;;;;;;;;;;;;8.24;51.16;99275.53;1737207;81;20170;-81
2022/02/20 08:50:11;;;;;;;;;;;;;;;8.11;51.90;99268.63;1741724;81;20820;-79
2022/02/20 08:52:37;;;;;;;;;;;;;;;7.87;51.98;99283.34;1764221;80;21138;-81
2022/02/20 08:55:04;;;;;;;;;;;;;;;8.00;52.25;99280.28;1767701;80;20117;-80
2022/02/20 08:57:29;;;;;;;;;;;;;;;8.04;51.15;99277.64;1737814;81;20169;-81
2022/02/20 08:59:55;;;;;;;;;;;;;;;8.00;50.51;99272.86;1735784;80;20219;-81
2022/02/20 09:02:21;;;;;;;;;;;;;;;7.93;50.36;99266.63;1740707;81;20269;-82
2022/02/20 09:04:47;;;;;;;;;;;;;;;8.03;50.40;99269.91;1755720;80;21015;-82
2022/02/20 09:07:13;;;;;;;;;;;;;;;7.89;50.36;99270.05;1746436;80;20166;-80
2022/02/20 09:09:39;;;;;;;;;;;;;;;7.94;50.21;99261.67;1758885;81;20284;-80
2022/02/20 09:12:05;;;;;;;;;;;;;;;8.08;50.23;99263.70;1743515;81;20158;-81
2022/02/20 09:14:31;;;;;;;;;;;;;;;8.13;49.88;99258.77;1747535;80;20268;-80
2022/02/20 09:16:56;;;;;;;;;;;;;;;8.12;50.12;99262.88;1755458;81;21141;-79
2022/02/20 09:19:22;;;;;;;;;;;;;;;8.14;50.20;99260.89;1757263;80;20759;-80
2022/02/20 09:21:47;;;;;;;;;;;;;;;7.64;51.17;99264.71;1755447;79;20169;-78
2022/02/20 09:24:13;;;;;;;;;;;;;;;7.37;52.13;99243.45;1758268;79;20114;-81
2022/02/20 09:26:39;;;;;;;;;;;;;;;7.43;52.27;99258.58;1754955;81;20169;-78
2022/02/20 09:29:04;;;;;;;;;;;;;;;7.65;52.11;99261.61;1753983;80;21160;-79
2022/02/20 09:31:30;;;;;;;;;;;;;;;7.88;52.00;99260.03;1753612;80;20319;-82
2022/02/20 09:33:56;;;;;;;;;;;;;;;7.84;51.93;99258.70;1752333;80;20181;-83
2022/02/20 09:36:21;;;;;;;;;;;;;;;8.14;51.41;99251.22;1749885;80;20165;-82
2022/02/20 09:38:47;;;;;;;;;;;;;;;7.94;51.33;99253.31;1751507;80;20328;-79
2022/02/20 09:41:13;;;;;;;;;;;;;;;7.93;51.93;99245.59;1756225;81;21141;-78
2022/02/20 09:43:39;;;;;;;;;;;;;;;7.75;52.26;99254.91;1753356;81;20121;-81
2022/02/20 09:46:05;;;;;;;;;;;;;;;8.21;51.86;99251.38;1747727;81;20165;-78
2022/02/20 09:48:31;;;;;;;;;;;;;;;7.89;52.79;99245.91;1752501;81;20167;-82
2022/02/20 09:50:56;;;;;;;;;;;;;;;8.12;52.71;99247.91;1748162;81;20163;-80
2022/02/20 09:53:22;;;;;;;;;;;;;;;8.07;52.80;99253.66;1751600;81;21255;-82
2022/02/20 09:55:49;;;;;;;;;;;;;;;7.65;53.78;99262.93;1751100;80;20124;-84
2022/02/20 09:58:15;;;;;;;;;;;;;;;7.79;53.78;99247.85;1752686;81;20218;-79
2022/02/20 10:00:54;;;;;;;;;;;;;;;7.95;53.75;99244.92;1752660;81;20190;-79
2022/02/20 10:03:30;;;;;;;;;;;;;;;7.73;54.42;99253.75;1746975;81;20471;-85
2022/02/20 10:05:55;;;;;;;;;;;;;;;7.44;55.75;99265.95;1751215;81;20147;-79
2022/02/20 10:08:21;;;;;;;;;;;;;;;7.46;56.31;99246.94;1749172;80;20203;-82
2022/02/20 10:10:46;;;;;;;;;;;;;;;7.60;56.16;99246.80;1750008;80;20162;-80
2022/02/20 10:13:14;;;;;;;;;;;;;;;7.61;56.38;99247.95;1745683;81;20175;-80
2022/02/20 10:15:40;;;;;;;;;;;;;;;7.90;56.00;99254.11;1741719;80;20513;-80
2022/02/20 10:18:17;;;;;;;;;;;;;;;7.68;56.98;99250.78;1741623;81;21176;-79
2022/02/20 10:20:43;;;;;;;;;;;;;;;7.72;57.04;99267.39;1749599;81;20158;-83
2022/02/20 10:23:14;;;;;;;;;;;;;;;7.54;58.15;99255.66;1746590;81;20339;-81
2022/02/20 10:25:43;;;;;;;;;;;;;;;7.28;59.71;99247.83;1747262;80;20154;-80
2022/02/20 10:28:09;;;;;;;;;;;;;;;7.37;60.15;99253.95;1746641;81;20222;-80
2022/02/20 10:30:35;;;;;;;;;;;;;;;7.27;60.58;99247.98;1745816;81;21070;-81
2022/02/20 10:33:20;;;;;;;;;;;;;;;7.27;60.96;99255.39;1744951;81;20434;-80
2022/02/20 10:35:51;;;;;;;;;;;;;;;7.40;61.23;99246.26;1746218;80;33609;-83
2022/02/20 10:38:20;;;;;;;;;;;;;;;7.45;61.27;99248.72;1739042;81;20658;-81
2022/02/20 10:40:47;;;;;;;;;;;;;;;7.37;62.31;99244.76;1747682;81;20168;-81
2022/02/20 10:43:33;;;;;;;;;;;;;;;7.51;62.95;99244.15;1751064;81;21266;-82
2022/02/20 10:46:12;;;;;;;;;;;;;;;7.47;63.29;99246.78;1749743;80;20136;-79
2022/02/20 10:48:39;;;;;;;;;;;;;;;7.40;64.43;99244.45;1747517;81;20126;-83
2022/02/20 10:51:05;;;;;;;;;;;;;;;7.82;63.12;99240.96;1751312;81;20622;-80
2022/02/20 10:53:31;;;;;;;;;;;;;;;7.78;63.40;99240.94;1748101;81;20134;-82
2022/02/20 10:55:59;;;;;;;;;;;;;;;8.01;62.61;99244.28;1744805;81;21110;-79
2022/02/20 10:58:26;;;;;;;;;;;;;;;7.72;63.58;99245.52;1738833;80;20159;-80
2022/02/20 11:00:58;;;;;;;;;;;;;;;7.68;64.49;99256.04;1749805;81;20191;-82
2022/02/20 11:03:24;;;;;;;;;;;;;;;7.29;66.46;99248.17;1744716;81;20218;-82
2022/02/20 11:05:50;;;;;;;;;;;;;;;7.50;66.34;99250.41;1747246;80;20187;-83
2022/02/20 11:08:18;;;;;;;;;;;;;;;7.44;67.39;99251.03;1747088;80;21104;-83
2022/02/20 11:10:44;;;;;;;;;;;;;;;7.46;68.19;99250.88;1741913;80;20189;-83
2022/02/20 11:13:10;;;;;;;;;;;;;;;6.95;71.11;99250.28;1748039;80;20226;-81
2022/02/20 11:15:36;;;;;;;;;;;;;;;7.11;71.99;99252.17;1746553;81;20110;-80
2022/02/20 11:18:03;;;;;;;;;;;;;;;7.31;72.65;99248.02;1748688;80;20152;-82
2022/02/20 11:20:33;;;;;;;;;;;;;;;7.26;73.83;99246.36;1744627;81;20677;-83
2022/02/20 11:23:03;;;;;;;;;;;;;;;7.39;73.83;99254.61;1743412;81;20698;-81
2022/02/20 11:25:30;;;;;;;;;;;;;;;6.96;76.45;99260.28;1749060;80;20161;-83
2022/02/20 11:27:57;;;;;;;;;;;;;;;6.92;77.52;99261.09;1749352;81;21040;-82
2022/02/20 11:30:23;;;;;;;;;;;;;;;6.97;78.58;99263.25;1738783;81;21174;-82
2022/02/20 11:32:48;;;;;;;;;;;;;;;7.03;78.91;99252.64;1746712;80;21124;-81
2022/02/20 11:35:14;;;;;;;;;;;;;;;6.87;79.82;99252.88;1747918;81;20499;-83
2022/02/20 11:37:58;;;;;;;;;;;;;;;6.86;80.63;99255.65;1747493;81;20180;-82
2022/02/20 11:40:27;;;;;;;;;;;;;;;6.65;81.90;99255.02;1743621;81;20180;-84
2022/02/20 11:43:04;;;;;;;;;;;;;;;6.70;81.54;99253.75;1746685;81;20469;-82
2022/02/20 11:45:31;;;;;;;;;;;;;;;6.85;83.20;99248.74;1741028;81;21161;-84
2022/02/20 11:48:03;;;;;;;;;;;;;;;7.10;81.53;99246.61;1742356;81;20148;-82
2022/02/20 11:50:37;;;;;;;;;;;;;;;6.79;82.91;99264.60;1747122;81;20257;-83
2022/02/20 11:53:07;;;;;;;;;;;;;;;6.56;83.58;99280.84;1752592;80;20122;-84
2022/02/20 11:55:39;;;;;;;;;;;;;;;6.55;84.09;99274.44;1749200;81;20133;-85
2022/02/20 11:58:16;;;;;;;;;;;;;;;6.54;84.72;99267.54;1755088;81;22387;-84
2022/02/20 12:01:03;;;;;;;;;;;;;;;6.59;84.11;99257.44;1750321;81;20296;-84
2022/02/20 12:03:32;;;;;;;;;;;;;;;6.83;83.81;99252.33;1751407;81;20194;-83
2022/02/20 12:06:18;;;;;;;;;;;;;;;6.41;85.12;99264.81;1743827;80;20241;-83
2022/02/20 12:08:48;;;;;;;;;;;;;;;6.56;85.11;99260.36;1744382;81;20218;-86
2022/02/20 12:11:19;;;;;;;;;;;;;;;6.54;85.10;99254.42;1752844;81;21964;-84
2022/02/20 12:13:46;;;;;;;;;;;;;;;6.49;85.85;99259.31;1753573;80;20199;-84
2022/02/20 12:16:32;;;;;;;;;;;;;;;6.42;86.63;99255.98;1749700;81;20142;-83
2022/02/20 12:19:25;;;;;;;;;;;;;;;6.20;88.06;99251.19;1752204;81;20887;-83
2022/02/20 12:21:52;;;;;;;;;;;;;;;6.34;87.48;99249.38;1752767;81;20233;-80
2022/02/20 12:24:23;;;;;;;;;;;;;;;6.27;87.32;99254.87;1773424;79;21156;-85
2022/02/20 12:26:55;;;;;;;;;;;;;;;6.36;88.13;99257.90;1744995;81;20180;-84
2022/02/20 12:29:24;;;;;;;;;;;;;;;6.55;86.47;99246.41;1740743;81;20174;-80
2022/02/20 12:32:10;;;;;;;;;;;;;;;6.52;86.98;99252.45;1756853;80;20371;-83
2022/02/20 12:35:08;;;;;;;;;;;;;;;6.46;86.26;99252.09;1757405;80;20132;-85
2022/02/20 12:37:39;;;;;;;;;;;;;;;6.40;86.61;99252.70;1760608;80;21207;-85
2022/02/20 12:40:07;;;;;;;;;;;;;;;6.38;87.21;99255.94;1761432;80;20198;-84
2022/02/20 12:42:41;;;;;;;;;;;;;;;6.76;86.17;99248.70;1762074;80;20241;-83
2022/02/20 12:45:13;;;;;;;;;;;;;;;6.77;85.32;99256.07;1759771;80;20113;-84
2022/02/20 12:47:39;;;;;;;;;;;;;;;6.76;85.72;99246.08;1762872;79;20217;-86
2022/02/20 12:50:06;;;;;;;;;;;;;;;6.81;85.62;99241.18;1760930;80;21005;-81
2022/02/20 12:52:34;;;;;;;;;;;;;;;6.69;85.72;99250.28;1763136;80;20191;-86
2022/02/20 12:54:59;;;;;;;;;;;;;;;6.93;85.13;99246.16;1753853;80;20172;-85
2022/02/20 12:57:26;;;;;;;;;;;;;;;6.94;85.05;99243.88;1752034;80;20156;-84